OIBA  Abumusa Island  Airport

Iran

Add Bookmark
ICAO OIBA
IATA AEU
Type Airport
Status Operational
Latitude
25° 52' 32" N
25.875700
Longitude
55° 1' 58" E
55.033001
Local (DST + 5) UTC (GMT + 4)
Aug 3, 2015 12:52 Aug 2, 2015 20:22
Sunrise-Sunset Local UTC
Begin Civil Twilight 05:51 01:21
Sunrise 06:15 01:45
Sunset 07:36 15:06
End Civil Twilight 08:01 15:31
VFR
VFR
MVFR
MVFR
IFR
IFR
LIFR
LIFR
Unknown
Unavailable

Current Weather

METAR Observed
OIBA 021500Z 33004KT 4000 HZ NSC 36/28 Q0998 Sun, Aug 2, 2015 @ 15:00 UTC
(5 Hours, 22 Minutes ago)
Wind Visibility Conditions
330° at 4 knots (7 kph) 4,007 m
  • Haze
Temperatures Readings Precipitation
Current Temp
36°C
97°F
Dewpoint
28°C
82°F
Heat Index
50°C
122°
Humidity 63%
Altimeter 29.47" Hg
Sea Level Pressure 998 mb
Field Elevation
7 m
23 ft
None Recorded

Additional weather within a 92.6km radius of OIBA

Map ICAO Location
OIBS 49.4km W (274°)
OIBL 75.9km N/NW (344°)
OMDB 76.9km S/SE (154°)
OMSJ 77.8km SE (141°)
VFR
VFR
MVFR
MVFR
IFR
IFR
LIFR
LIFR
Unknown
Unavailable
-
-

CheckWX.com is intended as a tool to help pilots better visualize weather data. It is not intended as a substitute for an official weather briefing obtained from a Flight Service Station. CheckWX.com does not meet the FAA requirements for an official pre-flight weather briefing. Therefore, it's important that pilots still call and obtain an official FSS pre-flight weather briefing.

© 2007-2015 CheckWX.com
20:22:25 UTC